Terminal Aerodrome Forecast
Issued by NWS Twin Cities, MN

Home | Current Version | Previous Version | Graphics & Text | Print | Product List | Glossary Off
Versions: 1 2 3 4 5 6 7 8 9 10 11 12 13 14 15 16 17 18 19 20 21 22 23 24 25 26 27 28 29

034
FTUS43 KMPX 070908 AAA
TAFMSP
TAF AMD
KMSP 070908Z 0709/0812 26015G22KT P6SM -SN OVC025
     FM071500 27017G27KT P6SM OVC025
     FM080400 28018G26KT 4SM -SN BR OVC020=

USA.gov is the U.S. government's official web portal to all federal, state and local government web resources and services.